sensor_id;sensor_type;location;lat;lon;timestamp;P1;durP1;ratioP1;P2;durP2;ratioP2
1378;SDS011;683;48.738;9.226;2022-11-11T00:00:36;20.40;;;15.60;;
1378;SDS011;683;48.738;9.226;2022-11-11T00:03:22;18.80;;;15.40;;
1378;SDS011;683;48.738;9.226;2022-11-11T00:06:09;17.93;;;15.50;;
1378;SDS011;683;48.738;9.226;2022-11-11T00:08:57;17.47;;;15.30;;
1378;SDS011;683;48.738;9.226;2022-11-11T00:11:44;19.53;;;16.47;;
1378;SDS011;683;48.738;9.226;2022-11-11T00:14:32;17.37;;;14.23;;
1378;SDS011;683;48.738;9.226;2022-11-11T00:17:18;19.27;;;15.60;;
1378;SDS011;683;48.738;9.226;2022-11-11T00:20:22;15.73;;;14.00;;
1378;SDS011;683;48.738;9.226;2022-11-11T00:23:26;14.20;;;12.70;;
1378;SDS011;683;48.738;9.226;2022-11-11T00:26:31;16.63;;;13.53;;
1378;SDS011;683;48.738;9.226;2022-11-11T00:29:17;23.03;;;16.40;;
1378;SDS011;683;48.738;9.226;2022-11-11T00:32:14;18.53;;;16.40;;
1378;SDS011;683;48.738;9.226;2022-11-11T00:35:13;21.37;;;16.70;;
1378;SDS011;683;48.738;9.226;2022-11-11T00:38:17;19.30;;;15.67;;
1378;SDS011;683;48.738;9.226;2022-11-11T00:41:18;21.10;;;15.80;;
1378;SDS011;683;48.738;9.226;2022-11-11T00:44:05;17.30;;;15.57;;
1378;SDS011;683;48.738;9.226;2022-11-11T00:46:51;19.70;;;16.43;;
1378;SDS011;683;48.738;9.226;2022-11-11T00:49:57;19.43;;;15.03;;
1378;SDS011;683;48.738;9.226;2022-11-11T00:53:03;18.43;;;16.37;;
1378;SDS011;683;48.738;9.226;2022-11-11T00:55:54;24.00;;;13.63;;
1378;SDS011;683;48.738;9.226;2022-11-11T00:58:41;21.33;;;14.33;;
1378;SDS011;683;48.738;9.226;2022-11-11T01:01:27;18.97;;;14.50;;
1378;SDS011;683;48.738;9.226;2022-11-11T01:04:14;15.37;;;12.53;;
1378;SDS011;683;48.738;9.226;2022-11-11T01:07:02;16.17;;;14.47;;
1378;SDS011;683;48.738;9.226;2022-11-11T01:09:48;16.13;;;14.60;;
1378;SDS011;683;48.738;9.226;2022-11-11T01:12:35;15.90;;;13.10;;
1378;SDS011;683;48.738;9.226;2022-11-11T01:15:21;16.40;;;14.70;;
1378;SDS011;683;48.738;9.226;2022-11-11T01:18:08;17.73;;;14.07;;
1378;SDS011;683;48.738;9.226;2022-11-11T01:20:58;15.50;;;13.90;;
1378;SDS011;683;48.738;9.226;2022-11-11T01:23:48;15.77;;;14.27;;
1378;SDS011;683;48.738;9.226;2022-11-11T01:26:35;17.47;;;15.60;;
1378;SDS011;683;48.738;9.226;2022-11-11T01:29:22;15.97;;;14.37;;
1378;SDS011;683;48.738;9.226;2022-11-11T01:32:08;17.57;;;15.77;;
1378;SDS011;683;48.738;9.226;2022-11-11T01:34:54;20.50;;;16.57;;
1378;SDS011;683;48.738;9.226;2022-11-11T01:37:40;20.57;;;17.03;;
1378;SDS011;683;48.738;9.226;2022-11-11T01:40:28;22.13;;;16.57;;
1378;SDS011;683;48.738;9.226;2022-11-11T01:43:17;21.83;;;17.30;;
1378;SDS011;683;48.738;9.226;2022-11-11T01:46:08;19.93;;;17.73;;
1378;SDS011;683;48.738;9.226;2022-11-11T01:49:13;22.30;;;17.93;;
1378;SDS011;683;48.738;9.226;2022-11-11T01:52:05;27.33;;;18.50;;
1378;SDS011;683;48.738;9.226;2022-11-11T01:54:55;23.10;;;18.53;;
1378;SDS011;683;48.738;9.226;2022-11-11T01:57:46;20.50;;;17.47;;
1378;SDS011;683;48.738;9.226;2022-11-11T02:00:38;25.63;;;19.70;;
1378;SDS011;683;48.738;9.226;2022-11-11T02:03:26;20.93;;;18.43;;
1378;SDS011;683;48.738;9.226;2022-11-11T02:06:16;23.03;;;17.73;;
1378;SDS011;683;48.738;9.226;2022-11-11T02:09:01;25.33;;;18.57;;
1378;SDS011;683;48.738;9.226;2022-11-11T02:11:48;19.00;;;16.13;;
1378;SDS011;683;48.738;9.226;2022-11-11T02:14:55;21.13;;;18.70;;
1378;SDS011;683;48.738;9.226;2022-11-11T02:17:44;19.60;;;17.50;;
1378;SDS011;683;48.738;9.226;2022-11-11T02:20:33;18.13;;;16.27;;
1378;SDS011;683;48.738;9.226;2022-11-11T02:23:23;24.50;;;18.90;;
1378;SDS011;683;48.738;9.226;2022-11-11T02:26:14;22.80;;;18.33;;
1378;SDS011;683;48.738;9.226;2022-11-11T02:29:03;22.90;;;16.73;;
1378;SDS011;683;48.738;9.226;2022-11-11T02:31:53;20.00;;;16.60;;
1378;SDS011;683;48.738;9.226;2022-11-11T02:34:41;22.47;;;17.57;;
1378;SDS011;683;48.738;9.226;2022-11-11T02:37:27;18.70;;;15.27;;
1378;SDS011;683;48.738;9.226;2022-11-11T02:40:16;17.40;;;15.20;;
1378;SDS011;683;48.738;9.226;2022-11-11T02:43:05;17.43;;;15.47;;
1378;SDS011;683;48.738;9.226;2022-11-11T02:45:51;17.27;;;15.40;;
1378;SDS011;683;48.738;9.226;2022-11-11T02:48:38;20.23;;;13.70;;
1378;SDS011;683;48.738;9.226;2022-11-11T02:51:24;21.20;;;15.90;;
1378;SDS011;683;48.738;9.226;2022-11-11T02:54:11;16.30;;;14.60;;
1378;SDS011;683;48.738;9.226;2022-11-11T02:56:57;21.30;;;17.17;;
1378;SDS011;683;48.738;9.226;2022-11-11T02:59:54;21.40;;;15.17;;
1378;SDS011;683;48.738;9.226;2022-11-11T03:02:42;19.87;;;16.13;;
1378;SDS011;683;48.738;9.226;2022-11-11T03:05:29;19.07;;;17.17;;
1378;SDS011;683;48.738;9.226;2022-11-11T03:08:15;21.73;;;16.43;;
1378;SDS011;683;48.738;9.226;2022-11-11T03:11:01;23.07;;;15.90;;
1378;SDS011;683;48.738;9.226;2022-11-11T03:13:48;17.20;;;15.40;;
1378;SDS011;683;48.738;9.226;2022-11-11T03:16:36;18.80;;;15.37;;
1378;SDS011;683;48.738;9.226;2022-11-11T03:19:39;17.43;;;15.43;;
1378;SDS011;683;48.738;9.226;2022-11-11T03:22:26;17.43;;;14.83;;
1378;SDS011;683;48.738;9.226;2022-11-11T03:25:12;20.20;;;16.00;;
1378;SDS011;683;48.738;9.226;2022-11-11T03:28:16;20.00;;;16.03;;
1378;SDS011;683;48.738;9.226;2022-11-11T03:31:03;22.60;;;16.63;;
1378;SDS011;683;48.738;9.226;2022-11-11T03:33:51;29.43;;;15.67;;
1378;SDS011;683;48.738;9.226;2022-11-11T03:36:38;50.43;;;17.87;;
1378;SDS011;683;48.738;9.226;2022-11-11T03:39:38;30.03;;;15.67;;
1378;SDS011;683;48.738;9.226;2022-11-11T03:42:24;34.33;;;15.83;;
1378;SDS011;683;48.738;9.226;2022-11-11T03:45:10;14.87;;;12.30;;
1378;SDS011;683;48.738;9.226;2022-11-11T03:47:57;18.10;;;13.13;;
1378;SDS011;683;48.738;9.226;2022-11-11T03:50:45;36.50;;;15.33;;
1378;SDS011;683;48.738;9.226;2022-11-11T03:53:31;40.73;;;14.37;;
1378;SDS011;683;48.738;9.226;2022-11-11T03:56:18;75.43;;;16.10;;
1378;SDS011;683;48.738;9.226;2022-11-11T03:59:04;35.40;;;15.10;;
1378;SDS011;683;48.738;9.226;2022-11-11T04:01:50;22.93;;;13.93;;
1378;SDS011;683;48.738;9.226;2022-11-11T04:04:54;36.87;;;13.93;;
1378;SDS011;683;48.738;9.226;2022-11-11T04:08:00;40.07;;;14.60;;
1378;SDS011;683;48.738;9.226;2022-11-11T04:11:05;40.23;;;17.00;;
1378;SDS011;683;48.738;9.226;2022-11-11T04:13:54;24.30;;;15.97;;
1378;SDS011;683;48.738;9.226;2022-11-11T04:17:01;19.17;;;14.20;;
1378;SDS011;683;48.738;9.226;2022-11-11T04:19:47;19.83;;;14.40;;
1378;SDS011;683;48.738;9.226;2022-11-11T04:22:51;20.00;;;13.97;;
1378;SDS011;683;48.738;9.226;2022-11-11T04:25:39;16.27;;;13.40;;
1378;SDS011;683;48.738;9.226;2022-11-11T04:28:33;17.50;;;13.40;;
1378;SDS011;683;48.738;9.226;2022-11-11T04:31:37;18.03;;;14.60;;
1378;SDS011;683;48.738;9.226;2022-11-11T04:34:44;17.03;;;14.43;;
1378;SDS011;683;48.738;9.226;2022-11-11T04:37:31;14.03;;;12.50;;
1378;SDS011;683;48.738;9.226;2022-11-11T04:40:19;14.50;;;12.83;;
1378;SDS011;683;48.738;9.226;2022-11-11T04:43:25;15.57;;;13.07;;
1378;SDS011;683;48.738;9.226;2022-11-11T04:46:11;15.77;;;14.20;;
1378;SDS011;683;48.738;9.226;2022-11-11T04:48:56;12.23;;;11.03;;
1378;SDS011;683;48.738;9.226;2022-11-11T04:51:42;14.40;;;12.57;;
1378;SDS011;683;48.738;9.226;2022-11-11T04:54:46;18.27;;;12.73;;
1378;SDS011;683;48.738;9.226;2022-11-11T04:57:50;14.60;;;13.20;;
1378;SDS011;683;48.738;9.226;2022-11-11T05:00:38;13.03;;;11.50;;
1378;SDS011;683;48.738;9.226;2022-11-11T05:03:24;13.57;;;11.90;;
1378;SDS011;683;48.738;9.226;2022-11-11T05:06:10;12.60;;;11.27;;
1378;SDS011;683;48.738;9.226;2022-11-11T05:09:14;14.40;;;12.93;;
1378;SDS011;683;48.738;9.226;2022-11-11T05:12:01;13.83;;;11.93;;
1378;SDS011;683;48.738;9.226;2022-11-11T05:14:47;13.50;;;12.10;;
1378;SDS011;683;48.738;9.226;2022-11-11T05:17:57;15.23;;;12.20;;
1378;SDS011;683;48.738;9.226;2022-11-11T05:21:01;12.17;;;10.90;;
1378;SDS011;683;48.738;9.226;2022-11-11T05:24:06;13.23;;;11.73;;
1378;SDS011;683;48.738;9.226;2022-11-11T05:27:09;12.77;;;10.80;;
1378;SDS011;683;48.738;9.226;2022-11-11T05:29:56;10.80;;;9.60;;
1378;SDS011;683;48.738;9.226;2022-11-11T05:32:42;12.53;;;11.23;;
1378;SDS011;683;48.738;9.226;2022-11-11T05:35:30;10.23;;;9.23;;
1378;SDS011;683;48.738;9.226;2022-11-11T05:38:16;11.90;;;10.63;;
1378;SDS011;683;48.738;9.226;2022-11-11T05:41:06;10.00;;;9.00;;
1378;SDS011;683;48.738;9.226;2022-11-11T05:43:53;10.40;;;9.40;;
1378;SDS011;683;48.738;9.226;2022-11-11T05:46:40;9.97;;;9.07;;
1378;SDS011;683;48.738;9.226;2022-11-11T05:49:26;11.50;;;10.27;;
1378;SDS011;683;48.738;9.226;2022-11-11T05:52:14;12.10;;;9.77;;
1378;SDS011;683;48.738;9.226;2022-11-11T05:55:02;14.63;;;11.47;;
1378;SDS011;683;48.738;9.226;2022-11-11T05:57:48;13.47;;;11.50;;
1378;SDS011;683;48.738;9.226;2022-11-11T06:00:35;11.00;;;9.03;;
1378;SDS011;683;48.738;9.226;2022-11-11T06:03:21;11.53;;;10.33;;
1378;SDS011;683;48.738;9.226;2022-11-11T06:06:08;10.63;;;9.67;;
1378;SDS011;683;48.738;9.226;2022-11-11T06:08:58;10.93;;;9.70;;
1378;SDS011;683;48.738;9.226;2022-11-11T06:11:45;11.30;;;9.70;;
1378;SDS011;683;48.738;9.226;2022-11-11T06:14:31;9.63;;;8.77;;
1378;SDS011;683;48.738;9.226;2022-11-11T06:17:17;12.87;;;10.90;;
1378;SDS011;683;48.738;9.226;2022-11-11T06:20:04;10.90;;;9.50;;
1378;SDS011;683;48.738;9.226;2022-11-11T06:22:51;11.83;;;10.63;;
1378;SDS011;683;48.738;9.226;2022-11-11T06:25:42;11.43;;;10.43;;
1378;SDS011;683;48.738;9.226;2022-11-11T06:28:47;12.03;;;10.80;;
1378;SDS011;683;48.738;9.226;2022-11-11T06:31:34;13.77;;;10.90;;
1378;SDS011;683;48.738;9.226;2022-11-11T06:34:21;14.27;;;11.37;;
1378;SDS011;683;48.738;9.226;2022-11-11T06:37:07;12.57;;;11.20;;
1378;SDS011;683;48.738;9.226;2022-11-11T06:39:54;11.07;;;9.50;;
1378;SDS011;683;48.738;9.226;2022-11-11T06:42:41;12.53;;;9.70;;
1378;SDS011;683;48.738;9.226;2022-11-11T06:45:28;12.53;;;11.33;;
1378;SDS011;683;48.738;9.226;2022-11-11T06:48:17;11.37;;;10.20;;
1378;SDS011;683;48.738;9.226;2022-11-11T06:51:04;12.20;;;10.90;;
1378;SDS011;683;48.738;9.226;2022-11-11T06:53:51;10.90;;;9.80;;
1378;SDS011;683;48.738;9.226;2022-11-11T06:56:37;11.40;;;10.10;;
1378;SDS011;683;48.738;9.226;2022-11-11T06:59:25;12.43;;;10.47;;
1378;SDS011;683;48.738;9.226;2022-11-11T07:02:11;11.40;;;10.30;;
1378;SDS011;683;48.738;9.226;2022-11-11T07:04:58;12.30;;;11.03;;
1378;SDS011;683;48.738;9.226;2022-11-11T07:07:45;9.53;;;8.73;;
1378;SDS011;683;48.738;9.226;2022-11-11T07:10:31;10.30;;;8.73;;
1378;SDS011;683;48.738;9.226;2022-11-11T07:13:19;10.10;;;8.40;;
1378;SDS011;683;48.738;9.226;2022-11-11T07:16:07;7.70;;;6.93;;
1378;SDS011;683;48.738;9.226;2022-11-11T07:18:55;9.50;;;7.60;;
1378;SDS011;683;48.738;9.226;2022-11-11T07:21:42;8.97;;;8.17;;
1378;SDS011;683;48.738;9.226;2022-11-11T07:24:28;8.00;;;7.30;;
1378;SDS011;683;48.738;9.226;2022-11-11T07:27:15;8.13;;;7.40;;
1378;SDS011;683;48.738;9.226;2022-11-11T07:30:02;10.33;;;9.33;;
1378;SDS011;683;48.738;9.226;2022-11-11T07:32:50;8.53;;;7.73;;
1378;SDS011;683;48.738;9.226;2022-11-11T07:35:37;9.70;;;8.70;;
1378;SDS011;683;48.738;9.226;2022-11-11T07:38:24;8.67;;;7.77;;
1378;SDS011;683;48.738;9.226;2022-11-11T07:41:10;9.63;;;8.27;;
1378;SDS011;683;48.738;9.226;2022-11-11T07:43:57;10.77;;;8.77;;
1378;SDS011;683;48.738;9.226;2022-11-11T07:46:43;8.27;;;7.47;;
1378;SDS011;683;48.738;9.226;2022-11-11T07:49:31;9.27;;;8.37;;
1378;SDS011;683;48.738;9.226;2022-11-11T07:52:17;10.13;;;9.23;;
1378;SDS011;683;48.738;9.226;2022-11-11T07:55:07;13.87;;;9.50;;
1378;SDS011;683;48.738;9.226;2022-11-11T07:57:53;9.30;;;8.50;;
1378;SDS011;683;48.738;9.226;2022-11-11T08:00:40;9.67;;;8.67;;
1378;SDS011;683;48.738;9.226;2022-11-11T08:03:26;10.10;;;9.10;;
1378;SDS011;683;48.738;9.226;2022-11-11T08:06:14;9.93;;;8.43;;
1378;SDS011;683;48.738;9.226;2022-11-11T08:09:01;10.30;;;8.40;;
1378;SDS011;683;48.738;9.226;2022-11-11T08:11:47;9.13;;;8.03;;
1378;SDS011;683;48.738;9.226;2022-11-11T08:14:52;10.17;;;9.17;;
1378;SDS011;683;48.738;9.226;2022-11-11T08:17:38;13.10;;;8.47;;
1378;SDS011;683;48.738;9.226;2022-11-11T08:20:24;8.57;;;7.77;;
1378;SDS011;683;48.738;9.226;2022-11-11T08:23:12;8.50;;;7.70;;
1378;SDS011;683;48.738;9.226;2022-11-11T08:26:04;11.80;;;9.17;;
1378;SDS011;683;48.738;9.226;2022-11-11T08:28:52;10.50;;;7.73;;
1378;SDS011;683;48.738;9.226;2022-11-11T08:31:38;7.63;;;6.93;;
1378;SDS011;683;48.738;9.226;2022-11-11T08:34:25;8.77;;;7.77;;
1378;SDS011;683;48.738;9.226;2022-11-11T08:37:11;8.37;;;7.33;;
1378;SDS011;683;48.738;9.226;2022-11-11T08:39:59;8.90;;;6.63;;
1378;SDS011;683;48.738;9.226;2022-11-11T08:42:45;9.20;;;6.50;;
1378;SDS011;683;48.738;9.226;2022-11-11T08:45:32;9.30;;;7.80;;
1378;SDS011;683;48.738;9.226;2022-11-11T08:48:18;9.20;;;7.10;;
1378;SDS011;683;48.738;9.226;2022-11-11T08:51:05;9.13;;;7.07;;
1378;SDS011;683;48.738;9.226;2022-11-11T08:53:51;20.47;;;9.53;;
1378;SDS011;683;48.738;9.226;2022-11-11T08:56:39;8.03;;;7.23;;
1378;SDS011;683;48.738;9.226;2022-11-11T08:59:26;9.10;;;7.53;;
1378;SDS011;683;48.738;9.226;2022-11-11T09:02:13;8.50;;;7.70;;
1378;SDS011;683;48.738;9.226;2022-11-11T09:05:00;13.67;;;9.60;;
1378;SDS011;683;48.738;9.226;2022-11-11T09:07:46;24.23;;;9.37;;
1378;SDS011;683;48.738;9.226;2022-11-11T09:10:33;9.87;;;9.00;;
1378;SDS011;683;48.738;9.226;2022-11-11T09:13:21;11.83;;;9.00;;
1378;SDS011;683;48.738;9.226;2022-11-11T09:16:07;10.83;;;8.07;;
1378;SDS011;683;48.738;9.226;2022-11-11T09:18:54;10.83;;;8.27;;
1378;SDS011;683;48.738;9.226;2022-11-11T09:21:41;9.10;;;8.23;;
1378;SDS011;683;48.738;9.226;2022-11-11T09:24:27;8.43;;;7.73;;
1378;SDS011;683;48.738;9.226;2022-11-11T09:27:13;9.40;;;7.40;;
1378;SDS011;683;48.738;9.226;2022-11-11T09:30:02;10.83;;;7.63;;
1378;SDS011;683;48.738;9.226;2022-11-11T09:32:48;7.53;;;6.80;;
1378;SDS011;683;48.738;9.226;2022-11-11T09:35:35;8.60;;;6.43;;
1378;SDS011;683;48.738;9.226;2022-11-11T09:38:22;9.93;;;7.07;;
1378;SDS011;683;48.738;9.226;2022-11-11T09:41:12;10.53;;;6.93;;
1378;SDS011;683;48.738;9.226;2022-11-11T09:44:04;7.67;;;6.93;;
1378;SDS011;683;48.738;9.226;2022-11-11T09:46:59;6.70;;;5.87;;
1378;SDS011;683;48.738;9.226;2022-11-11T09:49:57;8.77;;;7.30;;
1378;SDS011;683;48.738;9.226;2022-11-11T09:52:48;8.77;;;7.77;;
1378;SDS011;683;48.738;9.226;2022-11-11T09:55:39;7.70;;;6.90;;
1378;SDS011;683;48.738;9.226;2022-11-11T09:58:28;9.43;;;6.53;;
1378;SDS011;683;48.738;9.226;2022-11-11T10:01:19;14.33;;;7.37;;
1378;SDS011;683;48.738;9.226;2022-11-11T10:04:15;8.87;;;7.73;;
1378;SDS011;683;48.738;9.226;2022-11-11T10:07:10;8.17;;;5.97;;
1378;SDS011;683;48.738;9.226;2022-11-11T10:09:59;7.80;;;6.57;;
1378;SDS011;683;48.738;9.226;2022-11-11T10:12:53;13.00;;;6.83;;
1378;SDS011;683;48.738;9.226;2022-11-11T10:15:44;8.33;;;6.77;;
1378;SDS011;683;48.738;9.226;2022-11-11T10:18:43;8.63;;;5.90;;
1378;SDS011;683;48.738;9.226;2022-11-11T10:21:41;7.33;;;6.63;;
1378;SDS011;683;48.738;9.226;2022-11-11T10:24:32;8.00;;;5.83;;
1378;SDS011;683;48.738;9.226;2022-11-11T10:27:24;7.40;;;6.23;;
1378;SDS011;683;48.738;9.226;2022-11-11T10:30:15;8.63;;;7.73;;
1378;SDS011;683;48.738;9.226;2022-11-11T10:33:05;8.37;;;7.37;;
1378;SDS011;683;48.738;9.226;2022-11-11T10:35:59;7.83;;;7.10;;
1378;SDS011;683;48.738;9.226;2022-11-11T10:38:52;11.67;;;7.27;;
1378;SDS011;683;48.738;9.226;2022-11-11T10:41:43;9.13;;;6.67;;
1378;SDS011;683;48.738;9.226;2022-11-11T10:44:32;7.47;;;6.77;;
1378;SDS011;683;48.738;9.226;2022-11-11T10:47:23;7.13;;;6.40;;
1378;SDS011;683;48.738;9.226;2022-11-11T10:50:20;6.97;;;6.37;;
1378;SDS011;683;48.738;9.226;2022-11-11T10:53:12;7.30;;;6.10;;
1378;SDS011;683;48.738;9.226;2022-11-11T10:56:05;8.47;;;7.00;;
1378;SDS011;683;48.738;9.226;2022-11-11T10:59:00;7.60;;;5.53;;
1378;SDS011;683;48.738;9.226;2022-11-11T11:01:53;6.77;;;6.13;;
1378;SDS011;683;48.738;9.226;2022-11-11T11:04:44;8.52;;;7.07;;
1378;SDS011;683;48.738;9.226;2022-11-11T11:07:33;6.60;;;6.10;;
1378;SDS011;683;48.738;9.226;2022-11-11T11:10:27;11.63;;;7.20;;
1378;SDS011;683;48.738;9.226;2022-11-11T11:13:20;6.63;;;5.93;;
1378;SDS011;683;48.738;9.226;2022-11-11T11:16:13;6.93;;;6.17;;
1378;SDS011;683;48.738;9.226;2022-11-11T11:19:14;7.67;;;6.17;;
1378;SDS011;683;48.738;9.226;2022-11-11T11:22:04;8.63;;;5.73;;
1378;SDS011;683;48.738;9.226;2022-11-11T11:24:51;7.93;;;6.13;;
1378;SDS011;683;48.738;9.226;2022-11-11T11:28:03;8.03;;;6.10;;
1378;SDS011;683;48.738;9.226;2022-11-11T11:31:00;7.40;;;5.60;;
1378;SDS011;683;48.738;9.226;2022-11-11T11:33:49;8.23;;;5.60;;
1378;SDS011;683;48.738;9.226;2022-11-11T11:36:38;8.47;;;6.70;;
1378;SDS011;683;48.738;9.226;2022-11-11T11:39:33;5.90;;;5.40;;
1378;SDS011;683;48.738;9.226;2022-11-11T11:42:29;7.23;;;6.43;;
1378;SDS011;683;48.738;9.226;2022-11-11T11:45:21;7.17;;;6.53;;
1378;SDS011;683;48.738;9.226;2022-11-11T11:48:13;7.43;;;6.80;;
1378;SDS011;683;48.738;9.226;2022-11-11T11:51:13;7.77;;;6.57;;
1378;SDS011;683;48.738;9.226;2022-11-11T11:54:24;7.33;;;6.63;;
1378;SDS011;683;48.738;9.226;2022-11-11T11:57:33;8.07;;;6.20;;
1378;SDS011;683;48.738;9.226;2022-11-11T12:00:30;9.70;;;6.43;;
1378;SDS011;683;48.738;9.226;2022-11-11T12:06:56;6.03;;;5.53;;
1378;SDS011;683;48.738;9.226;2022-11-11T12:09:54;7.30;;;6.60;;
1378;SDS011;683;48.738;9.226;2022-11-11T12:12:49;11.53;;;6.10;;
1378;SDS011;683;48.738;9.226;2022-11-11T12:15:41;5.80;;;5.30;;
1378;SDS011;683;48.738;9.226;2022-11-11T12:21:53;7.97;;;6.23;;
1378;SDS011;683;48.738;9.226;2022-11-11T12:24:52;7.83;;;6.73;;
1378;SDS011;683;48.738;9.226;2022-11-11T12:27:51;7.57;;;6.90;;
1378;SDS011;683;48.738;9.226;2022-11-11T12:30:46;10.30;;;6.70;;
1378;SDS011;683;48.738;9.226;2022-11-11T12:33:47;7.67;;;6.50;;
1378;SDS011;683;48.738;9.226;2022-11-11T12:36:45;5.53;;;5.13;;
1378;SDS011;683;48.738;9.226;2022-11-11T12:39:47;7.37;;;6.27;;
1378;SDS011;683;48.738;9.226;2022-11-11T12:42:45;9.20;;;5.63;;
1378;SDS011;683;48.738;9.226;2022-11-11T12:45:45;6.40;;;5.80;;
1378;SDS011;683;48.738;9.226;2022-11-11T12:48:40;6.20;;;5.70;;
1378;SDS011;683;48.738;9.226;2022-11-11T12:51:45;8.57;;;6.20;;
1378;SDS011;683;48.738;9.226;2022-11-11T12:54:41;6.23;;;5.40;;
1378;SDS011;683;48.738;9.226;2022-11-11T12:57:45;6.07;;;5.47;;
1378;SDS011;683;48.738;9.226;2022-11-11T13:00:43;7.80;;;5.40;;
1378;SDS011;683;48.738;9.226;2022-11-11T13:03:43;7.70;;;6.10;;
1378;SDS011;683;48.738;9.226;2022-11-11T13:06:42;6.37;;;5.67;;
1378;SDS011;683;48.738;9.226;2022-11-11T13:09:59;6.20;;;5.20;;
1378;SDS011;683;48.738;9.226;2022-11-11T13:12:59;7.00;;;6.33;;
1378;SDS011;683;48.738;9.226;2022-11-11T13:15:55;8.90;;;5.57;;
1378;SDS011;683;48.738;9.226;2022-11-11T13:18:44;6.00;;;5.50;;
1378;SDS011;683;48.738;9.226;2022-11-11T13:21:40;7.70;;;6.30;;
1378;SDS011;683;48.738;9.226;2022-11-11T13:24:29;5.93;;;5.40;;
1378;SDS011;683;48.738;9.226;2022-11-11T13:27:18;6.13;;;5.23;;
1378;SDS011;683;48.738;9.226;2022-11-11T13:30:16;6.93;;;5.13;;
1378;SDS011;683;48.738;9.226;2022-11-11T13:33:24;5.07;;;4.63;;
1378;SDS011;683;48.738;9.226;2022-11-11T13:36:20;5.67;;;5.17;;
1378;SDS011;683;48.738;9.226;2022-11-11T13:39:18;4.60;;;3.97;;
1378;SDS011;683;48.738;9.226;2022-11-11T13:42:10;4.47;;;4.07;;
1378;SDS011;683;48.738;9.226;2022-11-11T13:45:06;5.00;;;4.60;;
1378;SDS011;683;48.738;9.226;2022-11-11T13:48:03;6.90;;;4.80;;
1378;SDS011;683;48.738;9.226;2022-11-11T13:50:51;4.70;;;4.33;;
1378;SDS011;683;48.738;9.226;2022-11-11T13:53:37;4.50;;;4.10;;
1378;SDS011;683;48.738;9.226;2022-11-11T13:56:26;5.10;;;3.78;;
1378;SDS011;683;48.738;9.226;2022-11-11T13:59:19;5.10;;;4.70;;
1378;SDS011;683;48.738;9.226;2022-11-11T14:05:18;5.20;;;4.73;;
1378;SDS011;683;48.738;9.226;2022-11-11T14:08:07;4.90;;;4.50;;
1378;SDS011;683;48.738;9.226;2022-11-11T14:10:54;6.30;;;4.83;;
1378;SDS011;683;48.738;9.226;2022-11-11T14:13:43;7.10;;;5.07;;
1378;SDS011;683;48.738;9.226;2022-11-11T14:19:44;5.53;;;4.87;;
1378;SDS011;683;48.738;9.226;2022-11-11T14:22:31;7.17;;;5.20;;
1378;SDS011;683;48.738;9.226;2022-11-11T14:25:19;5.63;;;5.13;;
1378;SDS011;683;48.738;9.226;2022-11-11T14:28:18;7.00;;;5.37;;
1378;SDS011;683;48.738;9.226;2022-11-11T14:34:23;5.17;;;4.67;;
1378;SDS011;683;48.738;9.226;2022-11-11T14:37:32;4.03;;;3.67;;
1378;SDS011;683;48.738;9.226;2022-11-11T14:40:32;5.27;;;4.40;;
1378;SDS011;683;48.738;9.226;2022-11-11T14:43:37;6.20;;;3.83;;
1378;SDS011;683;48.738;9.226;2022-11-11T14:46:25;4.60;;;4.00;;
1378;SDS011;683;48.738;9.226;2022-11-11T14:49:15;4.50;;;4.07;;
1378;SDS011;683;48.738;9.226;2022-11-11T14:52:33;4.00;;;3.63;;
1378;SDS011;683;48.738;9.226;2022-11-11T14:55:23;4.73;;;4.33;;
1378;SDS011;683;48.738;9.226;2022-11-11T14:58:12;5.00;;;4.50;;
1378;SDS011;683;48.738;9.226;2022-11-11T15:01:02;4.50;;;3.73;;
1378;SDS011;683;48.738;9.226;2022-11-11T15:03:59;4.20;;;3.90;;
1378;SDS011;683;48.738;9.226;2022-11-11T15:06:47;15.00;;;5.20;;
1378;SDS011;683;48.738;9.226;2022-11-11T15:09:46;6.07;;;3.83;;
1378;SDS011;683;48.738;9.226;2022-11-11T15:12:57;6.03;;;3.93;;
1378;SDS011;683;48.738;9.226;2022-11-11T15:15:58;4.20;;;3.80;;
1378;SDS011;683;48.738;9.226;2022-11-11T15:18:59;4.50;;;3.87;;
1378;SDS011;683;48.738;9.226;2022-11-11T15:22:23;5.23;;;4.70;;
1378;SDS011;683;48.738;9.226;2022-11-11T15:25:24;5.57;;;5.00;;
1378;SDS011;683;48.738;9.226;2022-11-11T15:28:23;5.33;;;4.87;;
1378;SDS011;683;48.738;9.226;2022-11-11T15:31:22;7.30;;;4.87;;
1378;SDS011;683;48.738;9.226;2022-11-11T15:34:17;8.40;;;5.43;;
1378;SDS011;683;48.738;9.226;2022-11-11T15:37:13;73.50;;;13.90;;
1378;SDS011;683;48.738;9.226;2022-11-11T15:40:01;50.77;;;11.40;;
1378;SDS011;683;48.738;9.226;2022-11-11T15:42:51;23.33;;;8.53;;
1378;SDS011;683;48.738;9.226;2022-11-11T15:45:38;7.60;;;5.70;;
1378;SDS011;683;48.738;9.226;2022-11-11T15:48:26;10.70;;;5.80;;
1378;SDS011;683;48.738;9.226;2022-11-11T15:51:24;7.67;;;5.60;;
1378;SDS011;683;48.738;9.226;2022-11-11T15:54:20;13.17;;;6.13;;
1378;SDS011;683;48.738;9.226;2022-11-11T15:57:26;13.13;;;6.80;;
1378;SDS011;683;48.738;9.226;2022-11-11T16:00:31;10.83;;;7.20;;
1378;SDS011;683;48.738;9.226;2022-11-11T16:03:18;16.27;;;7.50;;
1378;SDS011;683;48.738;9.226;2022-11-11T16:06:07;10.37;;;7.80;;
1378;SDS011;683;48.738;9.226;2022-11-11T16:08:55;14.20;;;7.80;;
1378;SDS011;683;48.738;9.226;2022-11-11T16:11:42;11.50;;;7.37;;
1378;SDS011;683;48.738;9.226;2022-11-11T16:14:29;11.73;;;6.63;;
1378;SDS011;683;48.738;9.226;2022-11-11T16:17:21;6.90;;;6.00;;
1378;SDS011;683;48.738;9.226;2022-11-11T16:20:11;8.80;;;7.00;;
1378;SDS011;683;48.738;9.226;2022-11-11T16:23:01;8.33;;;7.17;;
1378;SDS011;683;48.738;9.226;2022-11-11T16:25:49;10.67;;;8.37;;
1378;SDS011;683;48.738;9.226;2022-11-11T16:28:38;8.37;;;7.57;;
1378;SDS011;683;48.738;9.226;2022-11-11T16:31:35;15.40;;;7.63;;
1378;SDS011;683;48.738;9.226;2022-11-11T16:34:36;11.03;;;7.87;;
1378;SDS011;683;48.738;9.226;2022-11-11T16:37:28;8.73;;;7.00;;
1378;SDS011;683;48.738;9.226;2022-11-11T16:40:24;10.30;;;6.33;;
1378;SDS011;683;48.738;9.226;2022-11-11T16:43:22;8.87;;;7.97;;
1378;SDS011;683;48.738;9.226;2022-11-11T16:46:12;10.10;;;6.17;;
1378;SDS011;683;48.738;9.226;2022-11-11T16:49:00;10.43;;;6.37;;
1378;SDS011;683;48.738;9.226;2022-11-11T16:52:05;7.10;;;6.50;;
1378;SDS011;683;48.738;9.226;2022-11-11T16:54:56;6.27;;;5.60;;
1378;SDS011;683;48.738;9.226;2022-11-11T16:57:44;8.70;;;6.40;;
1378;SDS011;683;48.738;9.226;2022-11-11T17:00:31;7.30;;;6.60;;
1378;SDS011;683;48.738;9.226;2022-11-11T17:03:20;8.17;;;7.37;;
1378;SDS011;683;48.738;9.226;2022-11-11T17:06:08;7.63;;;6.60;;
1378;SDS011;683;48.738;9.226;2022-11-11T17:08:56;7.70;;;6.60;;
1378;SDS011;683;48.738;9.226;2022-11-11T17:11:43;8.50;;;7.13;;
1378;SDS011;683;48.738;9.226;2022-11-11T17:14:31;12.00;;;8.53;;
1378;SDS011;683;48.738;9.226;2022-11-11T17:17:18;10.97;;;8.03;;
1378;SDS011;683;48.738;9.226;2022-11-11T17:20:06;14.53;;;9.13;;
1378;SDS011;683;48.738;9.226;2022-11-11T17:22:56;13.00;;;10.40;;
1378;SDS011;683;48.738;9.226;2022-11-11T17:25:43;25.10;;;17.57;;
1378;SDS011;683;48.738;9.226;2022-11-11T17:28:31;13.30;;;10.40;;
1378;SDS011;683;48.738;9.226;2022-11-11T17:31:19;16.17;;;10.10;;
1378;SDS011;683;48.738;9.226;2022-11-11T17:34:07;9.73;;;8.63;;
1378;SDS011;683;48.738;9.226;2022-11-11T17:36:54;8.60;;;7.63;;
1378;SDS011;683;48.738;9.226;2022-11-11T17:39:41;13.10;;;10.30;;
1378;SDS011;683;48.738;9.226;2022-11-11T17:42:30;15.77;;;8.47;;
1378;SDS011;683;48.738;9.226;2022-11-11T17:45:16;12.67;;;10.40;;
1378;SDS011;683;48.738;9.226;2022-11-11T17:48:03;11.17;;;8.40;;
1378;SDS011;683;48.738;9.226;2022-11-11T17:50:50;19.03;;;11.03;;
1378;SDS011;683;48.738;9.226;2022-11-11T17:53:36;12.70;;;10.80;;
1378;SDS011;683;48.738;9.226;2022-11-11T17:56:23;13.83;;;11.00;;
1378;SDS011;683;48.738;9.226;2022-11-11T17:59:11;9.10;;;8.20;;
1378;SDS011;683;48.738;9.226;2022-11-11T18:01:58;12.73;;;10.23;;